sensor_id;sensor_type;location;lat;lon;timestamp;P1;durP1;ratioP1;P2;durP2;ratioP2
19179;SDS011;9722;48.754;8.868;2022-07-23T00:02:23;4.70;;;4.30;;
19179;SDS011;9722;48.754;8.868;2022-07-23T00:05:44;4.43;;;4.17;;
19179;SDS011;9722;48.754;8.868;2022-07-23T00:09:04;4.07;;;3.87;;
19179;SDS011;9722;48.754;8.868;2022-07-23T00:12:25;4.70;;;4.40;;
19179;SDS011;9722;48.754;8.868;2022-07-23T00:15:45;4.43;;;4.13;;
19179;SDS011;9722;48.754;8.868;2022-07-23T00:19:06;4.20;;;3.90;;
19179;SDS011;9722;48.754;8.868;2022-07-23T00:22:27;4.40;;;4.13;;
19179;SDS011;9722;48.754;8.868;2022-07-23T00:25:49;4.33;;;4.03;;
19179;SDS011;9722;48.754;8.868;2022-07-23T00:29:09;4.53;;;4.23;;
19179;SDS011;9722;48.754;8.868;2022-07-23T00:32:30;4.37;;;4.07;;
19179;SDS011;9722;48.754;8.868;2022-07-23T00:35:50;4.53;;;4.17;;
19179;SDS011;9722;48.754;8.868;2022-07-23T00:39:11;4.57;;;4.23;;
19179;SDS011;9722;48.754;8.868;2022-07-23T00:42:31;4.33;;;3.93;;
19179;SDS011;9722;48.754;8.868;2022-07-23T00:45:52;4.50;;;4.20;;
19179;SDS011;9722;48.754;8.868;2022-07-23T00:49:13;4.43;;;4.13;;
19179;SDS011;9722;48.754;8.868;2022-07-23T00:52:34;4.17;;;3.77;;
19179;SDS011;9722;48.754;8.868;2022-07-23T00:55:56;4.33;;;4.03;;
19179;SDS011;9722;48.754;8.868;2022-07-23T00:59:18;4.20;;;3.90;;
19179;SDS011;9722;48.754;8.868;2022-07-23T01:02:39;4.60;;;4.20;;
19179;SDS011;9722;48.754;8.868;2022-07-23T01:06:00;4.60;;;4.30;;
19179;SDS011;9722;48.754;8.868;2022-07-23T01:09:20;4.00;;;3.70;;
19179;SDS011;9722;48.754;8.868;2022-07-23T01:12:41;4.17;;;3.87;;
19179;SDS011;9722;48.754;8.868;2022-07-23T01:16:01;4.03;;;3.83;;
19179;SDS011;9722;48.754;8.868;2022-07-23T01:19:22;4.80;;;4.40;;
19179;SDS011;9722;48.754;8.868;2022-07-23T01:22:43;3.90;;;3.60;;
19179;SDS011;9722;48.754;8.868;2022-07-23T01:26:04;4.80;;;4.03;;
19179;SDS011;9722;48.754;8.868;2022-07-23T01:29:24;4.40;;;4.10;;
19179;SDS011;9722;48.754;8.868;2022-07-23T01:32:45;4.50;;;4.20;;
19179;SDS011;9722;48.754;8.868;2022-07-23T01:36:06;4.27;;;3.97;;
19179;SDS011;9722;48.754;8.868;2022-07-23T01:39:27;4.10;;;3.90;;
19179;SDS011;9722;48.754;8.868;2022-07-23T01:42:47;4.20;;;3.90;;
19179;SDS011;9722;48.754;8.868;2022-07-23T01:46:08;4.50;;;4.20;;
19179;SDS011;9722;48.754;8.868;2022-07-23T01:49:28;4.50;;;4.20;;
19179;SDS011;9722;48.754;8.868;2022-07-23T01:52:49;4.40;;;4.10;;
19179;SDS011;9722;48.754;8.868;2022-07-23T01:56:09;4.27;;;3.87;;
19179;SDS011;9722;48.754;8.868;2022-07-23T01:59:30;3.90;;;3.70;;
19179;SDS011;9722;48.754;8.868;2022-07-23T02:02:50;4.00;;;3.70;;
19179;SDS011;9722;48.754;8.868;2022-07-23T02:06:11;3.43;;;3.17;;
19179;SDS011;9722;48.754;8.868;2022-07-23T02:09:32;3.87;;;3.57;;
19179;SDS011;9722;48.754;8.868;2022-07-23T02:12:52;4.00;;;3.80;;
19179;SDS011;9722;48.754;8.868;2022-07-23T02:16:13;4.40;;;4.10;;
19179;SDS011;9722;48.754;8.868;2022-07-23T02:19:34;4.17;;;3.97;;
19179;SDS011;9722;48.754;8.868;2022-07-23T02:22:54;4.37;;;4.07;;
19179;SDS011;9722;48.754;8.868;2022-07-23T02:26:15;4.17;;;3.87;;
19179;SDS011;9722;48.754;8.868;2022-07-23T02:29:35;3.83;;;3.63;;
19179;SDS011;9722;48.754;8.868;2022-07-23T02:32:56;4.07;;;3.80;;
19179;SDS011;9722;48.754;8.868;2022-07-23T02:36:16;4.20;;;3.90;;
19179;SDS011;9722;48.754;8.868;2022-07-23T02:39:37;4.40;;;4.10;;
19179;SDS011;9722;48.754;8.868;2022-07-23T02:42:57;4.40;;;4.10;;
19179;SDS011;9722;48.754;8.868;2022-07-23T02:46:18;4.20;;;3.90;;
19179;SDS011;9722;48.754;8.868;2022-07-23T02:49:38;4.43;;;4.13;;
19179;SDS011;9722;48.754;8.868;2022-07-23T02:52:59;4.73;;;4.33;;
19179;SDS011;9722;48.754;8.868;2022-07-23T02:56:19;4.50;;;4.20;;
19179;SDS011;9722;48.754;8.868;2022-07-23T02:59:40;3.60;;;3.40;;
19179;SDS011;9722;48.754;8.868;2022-07-23T03:03:00;4.50;;;4.10;;
19179;SDS011;9722;48.754;8.868;2022-07-23T03:06:21;3.97;;;3.77;;
19179;SDS011;9722;48.754;8.868;2022-07-23T03:09:41;4.40;;;4.10;;
19179;SDS011;9722;48.754;8.868;2022-07-23T03:13:02;4.57;;;4.27;;
19179;SDS011;9722;48.754;8.868;2022-07-23T03:16:23;4.23;;;3.93;;
19179;SDS011;9722;48.754;8.868;2022-07-23T03:19:43;3.83;;;3.63;;
19179;SDS011;9722;48.754;8.868;2022-07-23T03:23:04;4.47;;;4.10;;
19179;SDS011;9722;48.754;8.868;2022-07-23T03:26:24;4.30;;;4.00;;
19179;SDS011;9722;48.754;8.868;2022-07-23T03:29:45;4.03;;;3.73;;
19179;SDS011;9722;48.754;8.868;2022-07-23T03:33:05;3.90;;;3.60;;
19179;SDS011;9722;48.754;8.868;2022-07-23T03:36:26;3.90;;;3.70;;
19179;SDS011;9722;48.754;8.868;2022-07-23T03:39:47;4.03;;;3.73;;
19179;SDS011;9722;48.754;8.868;2022-07-23T03:43:07;4.37;;;4.07;;
19179;SDS011;9722;48.754;8.868;2022-07-23T03:46:28;4.47;;;4.17;;
19179;SDS011;9722;48.754;8.868;2022-07-23T03:49:49;3.97;;;3.73;;
19179;SDS011;9722;48.754;8.868;2022-07-23T03:53:09;4.00;;;3.80;;
19179;SDS011;9722;48.754;8.868;2022-07-23T03:56:30;4.40;;;4.10;;
19179;SDS011;9722;48.754;8.868;2022-07-23T03:59:50;5.10;;;4.70;;
19179;SDS011;9722;48.754;8.868;2022-07-23T04:03:11;4.53;;;4.20;;
19179;SDS011;9722;48.754;8.868;2022-07-23T04:06:32;4.60;;;4.20;;
19179;SDS011;9722;48.754;8.868;2022-07-23T04:09:52;3.87;;;3.63;;
19179;SDS011;9722;48.754;8.868;2022-07-23T04:13:13;4.53;;;4.13;;
19179;SDS011;9722;48.754;8.868;2022-07-23T04:16:33;4.50;;;4.20;;
19179;SDS011;9722;48.754;8.868;2022-07-23T04:19:54;4.40;;;4.10;;
19179;SDS011;9722;48.754;8.868;2022-07-23T04:23:14;4.37;;;4.07;;
19179;SDS011;9722;48.754;8.868;2022-07-23T04:26:35;3.93;;;3.63;;
19179;SDS011;9722;48.754;8.868;2022-07-23T04:29:55;4.50;;;4.10;;
19179;SDS011;9722;48.754;8.868;2022-07-23T04:33:16;4.47;;;4.07;;
19179;SDS011;9722;48.754;8.868;2022-07-23T04:36:36;4.87;;;4.47;;
19179;SDS011;9722;48.754;8.868;2022-07-23T04:39:56;4.70;;;4.40;;
19179;SDS011;9722;48.754;8.868;2022-07-23T04:43:17;4.87;;;4.57;;
19179;SDS011;9722;48.754;8.868;2022-07-23T04:46:38;4.70;;;4.40;;
19179;SDS011;9722;48.754;8.868;2022-07-23T04:49:59;4.53;;;4.17;;
19179;SDS011;9722;48.754;8.868;2022-07-23T04:53:19;4.30;;;4.00;;
19179;SDS011;9722;48.754;8.868;2022-07-23T04:56:40;4.37;;;4.07;;
19179;SDS011;9722;48.754;8.868;2022-07-23T05:00:00;4.53;;;4.13;;
19179;SDS011;9722;48.754;8.868;2022-07-23T05:03:21;4.57;;;4.27;;
19179;SDS011;9722;48.754;8.868;2022-07-23T05:06:42;4.20;;;4.00;;
19179;SDS011;9722;48.754;8.868;2022-07-23T05:10:02;4.63;;;4.27;;
19179;SDS011;9722;48.754;8.868;2022-07-23T05:13:23;4.43;;;4.13;;
19179;SDS011;9722;48.754;8.868;2022-07-23T05:16:44;4.43;;;4.03;;
19179;SDS011;9722;48.754;8.868;2022-07-23T05:20:04;4.60;;;4.30;;
19179;SDS011;9722;48.754;8.868;2022-07-23T05:23:25;4.40;;;4.10;;
19179;SDS011;9722;48.754;8.868;2022-07-23T05:26:46;3.93;;;3.63;;
19179;SDS011;9722;48.754;8.868;2022-07-23T05:30:06;4.37;;;4.07;;
19179;SDS011;9722;48.754;8.868;2022-07-23T05:33:27;4.30;;;4.00;;
19179;SDS011;9722;48.754;8.868;2022-07-23T05:36:48;4.20;;;3.90;;
19179;SDS011;9722;48.754;8.868;2022-07-23T05:40:09;4.70;;;4.40;;
19179;SDS011;9722;48.754;8.868;2022-07-23T05:43:30;4.67;;;4.30;;
19179;SDS011;9722;48.754;8.868;2022-07-23T05:46:51;4.80;;;4.50;;
19179;SDS011;9722;48.754;8.868;2022-07-23T05:50:12;4.30;;;4.00;;
19179;SDS011;9722;48.754;8.868;2022-07-23T05:53:33;4.20;;;4.00;;
19179;SDS011;9722;48.754;8.868;2022-07-23T05:56:54;4.50;;;4.20;;
19179;SDS011;9722;48.754;8.868;2022-07-23T06:00:15;4.67;;;4.13;;
19179;SDS011;9722;48.754;8.868;2022-07-23T06:03:36;5.20;;;4.07;;
19179;SDS011;9722;48.754;8.868;2022-07-23T06:06:56;5.63;;;4.33;;
19179;SDS011;9722;48.754;8.868;2022-07-23T06:10:17;4.80;;;4.40;;
19179;SDS011;9722;48.754;8.868;2022-07-23T06:13:37;4.53;;;4.23;;
19179;SDS011;9722;48.754;8.868;2022-07-23T06:16:58;4.40;;;4.13;;
19179;SDS011;9722;48.754;8.868;2022-07-23T06:20:19;4.53;;;4.30;;
19179;SDS011;9722;48.754;8.868;2022-07-23T06:23:39;4.10;;;3.90;;
19179;SDS011;9722;48.754;8.868;2022-07-23T06:27:00;4.33;;;4.10;;
19179;SDS011;9722;48.754;8.868;2022-07-23T06:30:20;4.40;;;4.00;;
19179;SDS011;9722;48.754;8.868;2022-07-23T06:33:41;4.43;;;4.07;;
19179;SDS011;9722;48.754;8.868;2022-07-23T06:37:02;3.67;;;3.47;;
19179;SDS011;9722;48.754;8.868;2022-07-23T06:40:22;3.80;;;3.60;;
19179;SDS011;9722;48.754;8.868;2022-07-23T06:43:43;4.23;;;3.90;;
19179;SDS011;9722;48.754;8.868;2022-07-23T06:47:03;4.60;;;4.23;;
19179;SDS011;9722;48.754;8.868;2022-07-23T06:50:24;4.27;;;3.93;;
19179;SDS011;9722;48.754;8.868;2022-07-23T06:53:44;4.30;;;4.00;;
19179;SDS011;9722;48.754;8.868;2022-07-23T06:57:05;4.30;;;4.00;;
19179;SDS011;9722;48.754;8.868;2022-07-23T07:00:25;7.17;;;4.30;;
19179;SDS011;9722;48.754;8.868;2022-07-23T07:03:46;5.23;;;4.77;;
19179;SDS011;9722;48.754;8.868;2022-07-23T07:07:07;4.87;;;4.57;;
19179;SDS011;9722;48.754;8.868;2022-07-23T07:10:27;5.80;;;5.30;;
19179;SDS011;9722;48.754;8.868;2022-07-23T07:13:48;5.23;;;4.83;;
19179;SDS011;9722;48.754;8.868;2022-07-23T07:17:08;5.50;;;5.10;;
19179;SDS011;9722;48.754;8.868;2022-07-23T07:20:30;5.13;;;4.73;;
19179;SDS011;9722;48.754;8.868;2022-07-23T07:23:54;5.30;;;4.90;;
19179;SDS011;9722;48.754;8.868;2022-07-23T07:27:14;6.00;;;5.50;;
19179;SDS011;9722;48.754;8.868;2022-07-23T07:30:35;6.33;;;5.93;;
19179;SDS011;9722;48.754;8.868;2022-07-23T07:33:56;5.03;;;4.63;;
19179;SDS011;9722;48.754;8.868;2022-07-23T07:37:16;5.13;;;4.83;;
19179;SDS011;9722;48.754;8.868;2022-07-23T07:40:37;5.67;;;5.00;;
19179;SDS011;9722;48.754;8.868;2022-07-23T07:43:57;4.93;;;4.43;;
19179;SDS011;9722;48.754;8.868;2022-07-23T07:47:18;5.13;;;4.80;;
19179;SDS011;9722;48.754;8.868;2022-07-23T07:50:38;5.00;;;4.67;;
19179;SDS011;9722;48.754;8.868;2022-07-23T07:53:59;4.80;;;4.40;;
19179;SDS011;9722;48.754;8.868;2022-07-23T07:57:20;5.30;;;4.90;;
19179;SDS011;9722;48.754;8.868;2022-07-23T08:00:41;5.63;;;5.23;;
19179;SDS011;9722;48.754;8.868;2022-07-23T08:04:01;4.63;;;4.30;;
19179;SDS011;9722;48.754;8.868;2022-07-23T08:07:22;5.10;;;4.80;;
19179;SDS011;9722;48.754;8.868;2022-07-23T08:10:42;4.70;;;4.40;;
19179;SDS011;9722;48.754;8.868;2022-07-23T08:14:03;5.37;;;4.97;;
19179;SDS011;9722;48.754;8.868;2022-07-23T08:17:24;4.67;;;4.37;;
19179;SDS011;9722;48.754;8.868;2022-07-23T08:20:44;4.77;;;4.47;;
19179;SDS011;9722;48.754;8.868;2022-07-23T08:24:05;5.03;;;4.70;;
19179;SDS011;9722;48.754;8.868;2022-07-23T08:27:25;4.60;;;4.30;;
19179;SDS011;9722;48.754;8.868;2022-07-23T08:30:46;4.90;;;4.30;;
19179;SDS011;9722;48.754;8.868;2022-07-23T08:34:06;4.83;;;4.40;;
19179;SDS011;9722;48.754;8.868;2022-07-23T08:37:27;4.30;;;4.10;;
19179;SDS011;9722;48.754;8.868;2022-07-23T08:40:48;4.90;;;4.03;;
19179;SDS011;9722;48.754;8.868;2022-07-23T08:44:11;4.53;;;4.23;;
19179;SDS011;9722;48.754;8.868;2022-07-23T08:47:32;4.63;;;4.10;;
19179;SDS011;9722;48.754;8.868;2022-07-23T08:50:54;4.30;;;4.10;;
19179;SDS011;9722;48.754;8.868;2022-07-23T08:54:16;3.93;;;3.63;;
19179;SDS011;9722;48.754;8.868;2022-07-23T08:57:38;3.93;;;3.63;;
19179;SDS011;9722;48.754;8.868;2022-07-23T09:00:58;4.10;;;3.90;;
19179;SDS011;9722;48.754;8.868;2022-07-23T09:04:20;4.00;;;3.80;;
19179;SDS011;9722;48.754;8.868;2022-07-23T09:11:24;3.83;;;3.63;;
19179;SDS011;9722;48.754;8.868;2022-07-23T09:14:45;3.80;;;3.50;;
19179;SDS011;9722;48.754;8.868;2022-07-23T09:18:07;3.67;;;3.47;;
19179;SDS011;9722;48.754;8.868;2022-07-23T09:25:02;4.07;;;3.77;;
19179;SDS011;9722;48.754;8.868;2022-07-23T09:28:26;4.10;;;3.87;;
19179;SDS011;9722;48.754;8.868;2022-07-23T09:31:50;4.43;;;4.03;;
19179;SDS011;9722;48.754;8.868;2022-07-23T09:35:12;4.40;;;4.00;;
19179;SDS011;9722;48.754;8.868;2022-07-23T09:38:33;3.60;;;3.40;;
19179;SDS011;9722;48.754;8.868;2022-07-23T09:41:53;4.82;;;4.53;;
19179;SDS011;9722;48.754;8.868;2022-07-23T09:45:14;4.38;;;4.07;;
19179;SDS011;9722;48.754;8.868;2022-07-23T09:48:35;4.25;;;4.05;;
19179;SDS011;9722;48.754;8.868;2022-07-23T09:51:56;4.60;;;4.30;;
19179;SDS011;9722;48.754;8.868;2022-07-23T09:55:19;4.80;;;4.50;;
19179;SDS011;9722;48.754;8.868;2022-07-23T09:58:50;4.53;;;4.32;;
19179;SDS011;9722;48.754;8.868;2022-07-23T10:02:12;4.35;;;4.15;;
19179;SDS011;9722;48.754;8.868;2022-07-23T10:05:34;5.00;;;4.20;;
19179;SDS011;9722;48.754;8.868;2022-07-23T10:08:57;4.63;;;4.32;;
19179;SDS011;9722;48.754;8.868;2022-07-23T10:12:19;4.55;;;4.25;;
19179;SDS011;9722;48.754;8.868;2022-07-23T10:15:58;4.43;;;4.18;;
19179;SDS011;9722;48.754;8.868;2022-07-23T10:19:19;4.82;;;4.50;;
19179;SDS011;9722;48.754;8.868;2022-07-23T10:22:45;4.50;;;4.30;;
19179;SDS011;9722;48.754;8.868;2022-07-23T10:29:51;4.15;;;3.95;;
19179;SDS011;9722;48.754;8.868;2022-07-23T10:33:53;4.32;;;4.10;;
19179;SDS011;9722;48.754;8.868;2022-07-23T10:37:40;4.68;;;4.38;;
19179;SDS011;9722;48.754;8.868;2022-07-23T10:41:04;4.47;;;4.28;;
19179;SDS011;9722;48.754;8.868;2022-07-23T10:44:31;4.75;;;4.35;;
19179;SDS011;9722;48.754;8.868;2022-07-23T10:51:40;4.88;;;4.53;;
19179;SDS011;9722;48.754;8.868;2022-07-23T10:55:44;4.40;;;4.20;;
19179;SDS011;9722;48.754;8.868;2022-07-23T10:59:06;4.60;;;4.40;;
19179;SDS011;9722;48.754;8.868;2022-07-23T11:02:30;4.50;;;4.30;;
19179;SDS011;9722;48.754;8.868;2022-07-23T11:05:52;5.32;;;4.93;;
19179;SDS011;9722;48.754;8.868;2022-07-23T11:12:49;4.40;;;4.20;;
19179;SDS011;9722;48.754;8.868;2022-07-23T11:16:17;4.68;;;4.45;;
19179;SDS011;9722;48.754;8.868;2022-07-23T11:27:24;4.45;;;4.25;;
19179;SDS011;9722;48.754;8.868;2022-07-23T11:31:00;4.05;;;3.85;;
19179;SDS011;9722;48.754;8.868;2022-07-23T11:38:08;4.60;;;4.32;;
19179;SDS011;9722;48.754;8.868;2022-07-23T11:41:43;4.32;;;4.13;;
19179;SDS011;9722;48.754;8.868;2022-07-23T11:45:05;4.22;;;4.03;;
19179;SDS011;9722;48.754;8.868;2022-07-23T11:48:28;4.80;;;4.40;;
19179;SDS011;9722;48.754;8.868;2022-07-23T11:52:03;4.70;;;4.50;;
19179;SDS011;9722;48.754;8.868;2022-07-23T11:55:33;4.40;;;4.20;;
19179;SDS011;9722;48.754;8.868;2022-07-23T11:58:54;4.90;;;4.53;;
19179;SDS011;9722;48.754;8.868;2022-07-23T12:02:17;4.90;;;4.60;;
19179;SDS011;9722;48.754;8.868;2022-07-23T12:05:39;4.32;;;4.13;;
19179;SDS011;9722;48.754;8.868;2022-07-23T12:09:00;4.78;;;4.47;;
19179;SDS011;9722;48.754;8.868;2022-07-23T12:12:21;4.50;;;4.30;;
19179;SDS011;9722;48.754;8.868;2022-07-23T12:15:43;4.60;;;4.35;;
19179;SDS011;9722;48.754;8.868;2022-07-23T12:19:06;4.43;;;4.13;;
19179;SDS011;9722;48.754;8.868;2022-07-23T12:22:33;4.95;;;4.70;;
19179;SDS011;9722;48.754;8.868;2022-07-23T12:26:01;4.57;;;4.38;;
19179;SDS011;9722;48.754;8.868;2022-07-23T12:29:22;4.88;;;4.57;;
19179;SDS011;9722;48.754;8.868;2022-07-23T12:32:54;4.85;;;4.55;;
19179;SDS011;9722;48.754;8.868;2022-07-23T12:36:17;4.88;;;4.57;;
19179;SDS011;9722;48.754;8.868;2022-07-23T12:39:37;4.85;;;4.45;;
19179;SDS011;9722;48.754;8.868;2022-07-23T12:43:00;5.05;;;4.68;;
19179;SDS011;9722;48.754;8.868;2022-07-23T12:46:33;9.45;;;4.95;;
19179;SDS011;9722;48.754;8.868;2022-07-23T12:49:54;5.03;;;4.72;;
19179;SDS011;9722;48.754;8.868;2022-07-23T12:53:15;5.25;;;4.85;;
19179;SDS011;9722;48.754;8.868;2022-07-23T12:56:39;5.30;;;5.00;;
19179;SDS011;9722;48.754;8.868;2022-07-23T13:00:08;6.43;;;4.50;;
19179;SDS011;9722;48.754;8.868;2022-07-23T13:03:34;5.60;;;5.10;;
19179;SDS011;9722;48.754;8.868;2022-07-23T13:06:57;4.95;;;4.55;;
19179;SDS011;9722;48.754;8.868;2022-07-23T13:10:20;4.93;;;4.70;;
19179;SDS011;9722;48.754;8.868;2022-07-23T13:13:41;5.50;;;5.10;;
19179;SDS011;9722;48.754;8.868;2022-07-23T13:17:01;5.15;;;4.80;;
19179;SDS011;9722;48.754;8.868;2022-07-23T13:20:22;5.07;;;4.78;;
19179;SDS011;9722;48.754;8.868;2022-07-23T13:23:42;5.13;;;4.80;;
19179;SDS011;9722;48.754;8.868;2022-07-23T13:27:03;4.90;;;4.60;;
19179;SDS011;9722;48.754;8.868;2022-07-23T13:30:24;5.28;;;4.88;;
19179;SDS011;9722;48.754;8.868;2022-07-23T13:33:45;5.03;;;4.72;;
19179;SDS011;9722;48.754;8.868;2022-07-23T13:37:05;4.50;;;4.20;;
19179;SDS011;9722;48.754;8.868;2022-07-23T13:40:26;4.63;;;4.40;;
19179;SDS011;9722;48.754;8.868;2022-07-23T13:43:46;5.20;;;4.95;;
19179;SDS011;9722;48.754;8.868;2022-07-23T13:47:08;5.95;;;5.57;;
19179;SDS011;9722;48.754;8.868;2022-07-23T13:50:28;5.10;;;4.80;;
19179;SDS011;9722;48.754;8.868;2022-07-23T13:53:49;6.95;;;4.65;;
19179;SDS011;9722;48.754;8.868;2022-07-23T13:57:10;5.72;;;5.13;;
19179;SDS011;9722;48.754;8.868;2022-07-23T14:00:30;5.20;;;4.90;;
19179;SDS011;9722;48.754;8.868;2022-07-23T14:03:52;4.97;;;4.57;;
19179;SDS011;9722;48.754;8.868;2022-07-23T14:07:12;5.07;;;4.77;;
19179;SDS011;9722;48.754;8.868;2022-07-23T14:10:33;5.53;;;5.13;;
19179;SDS011;9722;48.754;8.868;2022-07-23T14:13:53;5.27;;;4.97;;
19179;SDS011;9722;48.754;8.868;2022-07-23T14:17:14;4.83;;;4.53;;
19179;SDS011;9722;48.754;8.868;2022-07-23T14:20:35;4.83;;;4.53;;
19179;SDS011;9722;48.754;8.868;2022-07-23T14:23:55;5.27;;;4.73;;
19179;SDS011;9722;48.754;8.868;2022-07-23T14:27:16;5.50;;;4.70;;
19179;SDS011;9722;48.754;8.868;2022-07-23T14:30:37;4.97;;;4.60;;
19179;SDS011;9722;48.754;8.868;2022-07-23T14:33:57;5.60;;;5.00;;
19179;SDS011;9722;48.754;8.868;2022-07-23T14:37:18;4.67;;;4.37;;
19179;SDS011;9722;48.754;8.868;2022-07-23T14:40:39;5.03;;;4.73;;
19179;SDS011;9722;48.754;8.868;2022-07-23T14:44:01;4.90;;;4.50;;
19179;SDS011;9722;48.754;8.868;2022-07-23T14:47:22;4.60;;;4.30;;
19179;SDS011;9722;48.754;8.868;2022-07-23T14:50:43;5.00;;;4.60;;
19179;SDS011;9722;48.754;8.868;2022-07-23T14:54:04;4.67;;;4.27;;
19179;SDS011;9722;48.754;8.868;2022-07-23T14:57:25;5.03;;;4.73;;
19179;SDS011;9722;48.754;8.868;2022-07-23T15:00:45;5.30;;;5.00;;
19179;SDS011;9722;48.754;8.868;2022-07-23T15:04:05;5.33;;;4.83;;
19179;SDS011;9722;48.754;8.868;2022-07-23T15:07:27;4.90;;;4.50;;
19179;SDS011;9722;48.754;8.868;2022-07-23T15:10:49;4.97;;;4.67;;
19179;SDS011;9722;48.754;8.868;2022-07-23T15:14:10;4.67;;;4.40;;
19179;SDS011;9722;48.754;8.868;2022-07-23T15:17:32;6.20;;;4.50;;
19179;SDS011;9722;48.754;8.868;2022-07-23T15:20:53;5.07;;;4.67;;
19179;SDS011;9722;48.754;8.868;2022-07-23T15:24:13;4.93;;;4.57;;
19179;SDS011;9722;48.754;8.868;2022-07-23T15:27:34;4.83;;;4.53;;
19179;SDS011;9722;48.754;8.868;2022-07-23T15:30:54;5.50;;;5.10;;
19179;SDS011;9722;48.754;8.868;2022-07-23T15:34:15;5.40;;;5.00;;
19179;SDS011;9722;48.754;8.868;2022-07-23T15:37:35;4.97;;;4.67;;
19179;SDS011;9722;48.754;8.868;2022-07-23T15:40:56;4.80;;;4.50;;
19179;SDS011;9722;48.754;8.868;2022-07-23T15:44:17;5.57;;;4.80;;
19179;SDS011;9722;48.754;8.868;2022-07-23T15:47:38;6.63;;;6.30;;
19179;SDS011;9722;48.754;8.868;2022-07-23T15:51:00;5.87;;;5.30;;
19179;SDS011;9722;48.754;8.868;2022-07-23T15:54:21;5.50;;;5.03;;
19179;SDS011;9722;48.754;8.868;2022-07-23T15:57:42;5.03;;;4.73;;
19179;SDS011;9722;48.754;8.868;2022-07-23T16:01:02;5.27;;;4.97;;
19179;SDS011;9722;48.754;8.868;2022-07-23T16:04:25;5.70;;;5.20;;
19179;SDS011;9722;48.754;8.868;2022-07-23T16:07:46;5.90;;;5.50;;
19179;SDS011;9722;48.754;8.868;2022-07-23T16:11:07;5.70;;;5.30;;
19179;SDS011;9722;48.754;8.868;2022-07-23T16:14:27;5.53;;;5.13;;
19179;SDS011;9722;48.754;8.868;2022-07-23T16:17:48;6.50;;;5.50;;
19179;SDS011;9722;48.754;8.868;2022-07-23T16:21:09;4.90;;;4.60;;
19179;SDS011;9722;48.754;8.868;2022-07-23T16:24:29;5.40;;;5.00;;
19179;SDS011;9722;48.754;8.868;2022-07-23T16:27:50;5.20;;;4.87;;
19179;SDS011;9722;48.754;8.868;2022-07-23T16:31:10;5.60;;;5.20;;
19179;SDS011;9722;48.754;8.868;2022-07-23T16:34:31;5.40;;;5.00;;
19179;SDS011;9722;48.754;8.868;2022-07-23T16:37:52;5.43;;;5.10;;
19179;SDS011;9722;48.754;8.868;2022-07-23T16:41:12;5.57;;;5.17;;
19179;SDS011;9722;48.754;8.868;2022-07-23T16:44:33;5.60;;;5.17;;
19179;SDS011;9722;48.754;8.868;2022-07-23T16:47:55;5.70;;;5.30;;
19179;SDS011;9722;48.754;8.868;2022-07-23T16:51:16;5.47;;;5.07;;
19179;SDS011;9722;48.754;8.868;2022-07-23T16:54:37;5.80;;;5.30;;
19179;SDS011;9722;48.754;8.868;2022-07-23T16:57:57;5.93;;;5.40;;
19179;SDS011;9722;48.754;8.868;2022-07-23T17:01:18;5.43;;;5.13;;
19179;SDS011;9722;48.754;8.868;2022-07-23T17:04:38;5.80;;;5.37;;
19179;SDS011;9722;48.754;8.868;2022-07-23T17:08:00;5.97;;;5.47;;
19179;SDS011;9722;48.754;8.868;2022-07-23T17:11:21;5.77;;;5.27;;
19179;SDS011;9722;48.754;8.868;2022-07-23T17:14:42;5.47;;;5.13;;
19179;SDS011;9722;48.754;8.868;2022-07-23T17:18:03;6.13;;;5.73;;
19179;SDS011;9722;48.754;8.868;2022-07-23T17:21:24;5.30;;;4.80;;
19179;SDS011;9722;48.754;8.868;2022-07-23T17:24:44;5.27;;;4.93;;
19179;SDS011;9722;48.754;8.868;2022-07-23T17:28:05;6.17;;;5.77;;
19179;SDS011;9722;48.754;8.868;2022-07-23T17:31:25;5.83;;;5.30;;
19179;SDS011;9722;48.754;8.868;2022-07-23T17:34:46;5.30;;;5.00;;
19179;SDS011;9722;48.754;8.868;2022-07-23T17:38:06;5.37;;;4.97;;
19179;SDS011;9722;48.754;8.868;2022-07-23T17:41:27;5.67;;;5.17;;
19179;SDS011;9722;48.754;8.868;2022-07-23T17:44:48;5.70;;;5.30;;
19179;SDS011;9722;48.754;8.868;2022-07-23T17:48:08;7.63;;;5.97;;
19179;SDS011;9722;48.754;8.868;2022-07-23T17:51:29;5.73;;;5.10;;
19179;SDS011;9722;48.754;8.868;2022-07-23T17:54:50;5.47;;;5.17;;
19179;SDS011;9722;48.754;8.868;2022-07-23T17:58:10;5.80;;;5.43;;
19179;SDS011;9722;48.754;8.868;2022-07-23T18:01:31;5.97;;;5.57;;
19179;SDS011;9722;48.754;8.868;2022-07-23T18:04:52;5.53;;;5.20;;
19179;SDS011;9722;48.754;8.868;2022-07-23T18:08:13;5.60;;;5.20;;
19179;SDS011;9722;48.754;8.868;2022-07-23T18:11:34;6.90;;;6.33;;
19179;SDS011;9722;48.754;8.868;2022-07-23T18:14:56;5.67;;;5.27;;
19179;SDS011;9722;48.754;8.868;2022-07-23T18:18:16;5.87;;;5.27;;
19179;SDS011;9722;48.754;8.868;2022-07-23T18:21:37;6.20;;;5.60;;
19179;SDS011;9722;48.754;8.868;2022-07-23T18:24:57;6.73;;;5.90;;
19179;SDS011;9722;48.754;8.868;2022-07-23T18:28:18;6.90;;;6.40;;
19179;SDS011;9722;48.754;8.868;2022-07-23T18:31:39;6.53;;;6.03;;
19179;SDS011;9722;48.754;8.868;2022-07-23T18:34:59;7.10;;;6.20;;
19179;SDS011;9722;48.754;8.868;2022-07-23T18:38:20;7.43;;;6.73;;
19179;SDS011;9722;48.754;8.868;2022-07-23T18:41:40;7.00;;;6.27;;
19179;SDS011;9722;48.754;8.868;2022-07-23T18:45:01;7.20;;;6.60;;
19179;SDS011;9722;48.754;8.868;2022-07-23T18:48:23;7.60;;;7.10;;
19179;SDS011;9722;48.754;8.868;2022-07-23T18:51:44;7.40;;;6.70;;
19179;SDS011;9722;48.754;8.868;2022-07-23T18:55:05;7.63;;;6.63;;
19179;SDS011;9722;48.754;8.868;2022-07-23T18:58:27;6.80;;;6.23;;
19179;SDS011;9722;48.754;8.868;2022-07-23T19:01:47;7.67;;;6.97;;
19179;SDS011;9722;48.754;8.868;2022-07-23T19:05:08;6.60;;;6.00;;
19179;SDS011;9722;48.754;8.868;2022-07-23T19:08:28;7.83;;;6.70;;
19179;SDS011;9722;48.754;8.868;2022-07-23T19:11:49;7.20;;;6.70;;
19179;SDS011;9722;48.754;8.868;2022-07-23T19:15:10;6.67;;;6.13;;
19179;SDS011;9722;48.754;8.868;2022-07-23T19:18:31;6.80;;;6.30;;
19179;SDS011;9722;48.754;8.868;2022-07-23T19:21:52;6.87;;;6.37;;
19179;SDS011;9722;48.754;8.868;2022-07-23T19:25:12;7.37;;;6.73;;
19179;SDS011;9722;48.754;8.868;2022-07-23T19:28:33;7.17;;;6.63;;
19179;SDS011;9722;48.754;8.868;2022-07-23T19:31:53;6.70;;;6.23;;
19179;SDS011;9722;48.754;8.868;2022-07-23T19:35:14;7.07;;;6.57;;
19179;SDS011;9722;48.754;8.868;2022-07-23T19:38:35;7.40;;;6.60;;
19179;SDS011;9722;48.754;8.868;2022-07-23T19:41:55;7.23;;;6.73;;
19179;SDS011;9722;48.754;8.868;2022-07-23T19:45:16;7.07;;;6.57;;
19179;SDS011;9722;48.754;8.868;2022-07-23T19:48:36;6.97;;;6.47;;
19179;SDS011;9722;48.754;8.868;2022-07-23T19:51:57;7.17;;;6.57;;
19179;SDS011;9722;48.754;8.868;2022-07-23T19:55:19;7.40;;;6.90;;
19179;SDS011;9722;48.754;8.868;2022-07-23T19:58:39;6.80;;;6.17;;
19179;SDS011;9722;48.754;8.868;2022-07-23T20:02:01;7.07;;;6.43;;
19179;SDS011;9722;48.754;8.868;2022-07-23T20:05:22;6.87;;;6.37;;
19179;SDS011;9722;48.754;8.868;2022-07-23T20:08:44;7.30;;;6.60;;
19179;SDS011;9722;48.754;8.868;2022-07-23T20:12:04;6.90;;;6.40;;
19179;SDS011;9722;48.754;8.868;2022-07-23T20:15:25;7.50;;;6.90;;
19179;SDS011;9722;48.754;8.868;2022-07-23T20:18:48;10.13;;;9.10;;
19179;SDS011;9722;48.754;8.868;2022-07-23T20:22:08;8.57;;;7.90;;
19179;SDS011;9722;48.754;8.868;2022-07-23T20:25:29;6.40;;;6.00;;
19179;SDS011;9722;48.754;8.868;2022-07-23T20:28:49;6.70;;;6.20;;
19179;SDS011;9722;48.754;8.868;2022-07-23T20:32:10;7.07;;;6.60;;
19179;SDS011;9722;48.754;8.868;2022-07-23T20:35:30;8.20;;;7.50;;
19179;SDS011;9722;48.754;8.868;2022-07-23T20:38:51;7.57;;;7.07;;
19179;SDS011;9722;48.754;8.868;2022-07-23T20:42:11;8.20;;;7.40;;
19179;SDS011;9722;48.754;8.868;2022-07-23T20:45:32;9.20;;;8.40;;
19179;SDS011;9722;48.754;8.868;2022-07-23T20:48:52;9.17;;;8.47;;
19179;SDS011;9722;48.754;8.868;2022-07-23T20:52:13;9.77;;;9.07;;
19179;SDS011;9722;48.754;8.868;2022-07-23T20:55:34;8.13;;;7.63;;
19179;SDS011;9722;48.754;8.868;2022-07-23T20:58:54;7.83;;;7.30;;
19179;SDS011;9722;48.754;8.868;2022-07-23T21:02:15;7.27;;;6.77;;